createdAt,value
2018-02-17T00:01:59.305Z,102254.30
2018-02-17T00:04:26.817Z,102246.80
2018-02-17T00:06:54.377Z,102250.69
2018-02-17T00:09:21.894Z,102244.52
2018-02-17T00:11:49.442Z,102250.22
2018-02-17T00:14:16.960Z,102251.48
2018-02-17T00:16:44.520Z,102257.72
2018-02-17T00:19:12.069Z,102260.73
2018-02-17T00:21:39.584Z,102256.33
2018-02-17T00:24:07.116Z,102260.73
2018-02-17T00:26:34.637Z,102260.70
2018-02-17T00:29:02.213Z,102255.80
2018-02-17T00:31:29.737Z,102254.48
2018-02-17T00:33:57.261Z,102253.52
2018-02-17T00:36:24.789Z,102259.66
2018-02-17T00:38:52.341Z,102261.85
2018-02-17T00:41:19.941Z,102261.80
2018-02-17T00:43:47.517Z,102269.33
2018-02-17T00:46:15.041Z,102264.43
2018-02-17T00:48:42.616Z,102261.79
2018-02-17T00:51:10.141Z,102270.59
2018-02-17T00:53:37.677Z,102269.27
2018-02-17T00:56:05.314Z,102269.19
2018-02-17T00:58:32.844Z,102268.30
2018-02-17T01:01:00.442Z,102272.32
2018-02-17T01:03:27.961Z,102270.04
2018-02-17T01:05:55.484Z,102277.09
2018-02-17T01:08:23.012Z,102277.09
2018-02-17T01:10:50.549Z,102278.31
2018-02-17T01:13:18.141Z,102278.31
2018-02-17T01:15:45.674Z,102280.97
2018-02-17T01:18:13.256Z,102284.05
2018-02-17T01:20:40.786Z,102289.23
2018-02-17T01:23:08.397Z,102286.69
2018-02-17T01:25:35.966Z,102293.66
2018-02-17T01:28:03.485Z,102306.42
2018-02-17T01:30:30.996Z,102301.19
2018-02-17T01:32:58.623Z,102304.76
2018-02-17T01:35:26.146Z,102303.86
2018-02-17T01:37:53.741Z,102313.97
2018-02-17T01:40:21.275Z,102313.09
2018-02-17T01:42:48.878Z,102320.55
2018-02-17T01:45:16.394Z,102301.23
2018-02-17T01:47:44.000Z,102309.75
2018-02-17T01:50:23.449Z,102313.28
2018-02-17T01:52:50.969Z,102309.34
2018-02-17T01:55:18.480Z,102300.17
2018-02-17T01:57:45.988Z,102299.69
2018-02-17T02:00:13.533Z,102292.32
2018-02-17T02:02:41.121Z,102292.31
2018-02-17T02:05:08.694Z,102293.10
2018-02-17T02:07:36.230Z,102289.60
2018-02-17T02:10:03.807Z,102283.59
2018-02-17T02:12:31.333Z,102280.53
2018-02-17T02:14:58.864Z,102273.13
2018-02-17T02:17:26.395Z,102278.13
2018-02-17T02:19:53.958Z,102276.39
2018-02-17T02:22:21.519Z,102267.63
2018-02-17T02:24:49.069Z,102266.84
2018-02-17T02:27:16.592Z,102261.98
2018-02-17T02:29:44.113Z,102262.95
2018-02-17T02:32:11.637Z,102260.70
2018-02-17T02:34:39.157Z,102259.00
2018-02-17T02:37:06.682Z,102256.86
2018-02-17T02:39:34.245Z,102263.03
2018-02-17T02:42:01.776Z,102265.69
2018-02-17T02:44:29.312Z,102264.73
2018-02-17T02:46:56.922Z,102262.89
2018-02-17T02:49:24.445Z,102258.85
2018-02-17T02:51:52.014Z,102256.20
2018-02-17T02:54:19.547Z,102261.05
2018-02-17T02:56:47.093Z,102252.66
2018-02-17T02:59:14.621Z,102256.10
2018-02-17T03:01:42.182Z,102244.58
2018-02-17T03:04:09.737Z,102249.01
2018-02-17T03:06:37.262Z,102250.75
2018-02-17T03:09:04.776Z,102253.37
2018-02-17T03:11:32.290Z,102252.08
2018-02-17T03:13:59.876Z,102251.77
2018-02-17T03:16:27.392Z,102251.78
2018-02-17T03:18:54.995Z,102249.23
2018-02-17T03:21:22.540Z,102252.38
2018-02-17T03:23:50.058Z,102253.27
2018-02-17T03:26:17.600Z,102250.27
2018-02-17T03:28:45.134Z,102254.30
2018-02-17T03:31:12.689Z,102253.00
2018-02-17T03:33:40.208Z,102248.23
2018-02-17T03:36:07.740Z,102247.05
2018-02-17T03:38:35.272Z,102237.75
2018-02-17T03:41:02.832Z,102229.97
2018-02-17T03:43:30.499Z,102229.52
2018-02-17T03:45:58.013Z,102225.17
2018-02-17T03:48:25.717Z,102222.59
2018-02-17T03:50:53.248Z,102222.60
2018-02-17T03:53:20.761Z,102222.69
2018-02-17T03:55:48.292Z,102217.48
2018-02-17T03:58:15.806Z,102221.43
2018-02-17T04:00:43.413Z,102224.08
2018-02-17T04:03:10.944Z,102218.38
2018-02-17T04:05:38.461Z,102230.77
2018-02-17T04:08:05.987Z,102234.30
2018-02-17T04:10:33.549Z,102227.38
2018-02-17T04:13:01.060Z,102226.94
2018-02-17T04:15:28.578Z,102220.71
2018-02-17T04:17:56.126Z,102227.31
2018-02-17T04:20:23.641Z,102224.75
2018-02-17T04:22:51.232Z,102217.81
2018-02-17T04:25:18.753Z,102222.61
2018-02-17T04:27:46.347Z,102221.77
2018-02-17T04:30:13.860Z,102217.81
2018-02-17T04:32:41.473Z,102216.95
2018-02-17T04:35:09.044Z,102215.63
2018-02-17T04:37:36.556Z,102207.69
2018-02-17T04:40:06.433Z,102205.49
2018-02-17T04:42:34.397Z,102205.61
2018-02-17T04:48:04.215Z,102200.32
2018-02-17T04:50:37.269Z,102206.87
2018-02-17T04:56:07.850Z,102202.41
2018-02-17T04:58:41.870Z,102205.54
2018-02-17T05:01:19.288Z,102187.92
2018-02-17T05:03:49.274Z,102180.86
2018-02-17T05:06:23.271Z,102167.25
2018-02-17T05:08:52.741Z,102177.02
2018-02-17T05:11:20.294Z,102174.16
2018-02-17T05:13:47.809Z,102175.13
2018-02-17T05:16:26.138Z,102169.40
2018-02-17T05:18:54.641Z,102175.69
2018-02-17T05:21:22.966Z,102169.84
2018-02-17T05:23:52.264Z,102171.22
2018-02-17T05:26:19.801Z,102174.75
2018-02-17T05:28:47.329Z,102175.63
2018-02-17T05:31:16.759Z,102176.45
2018-02-17T05:33:44.663Z,102160.71
2018-02-17T05:36:26.032Z,102172.60
2018-02-17T05:39:05.273Z,102184.75
2018-02-17T05:41:33.240Z,102177.52
2018-02-17T05:44:00.772Z,102169.16
2018-02-17T05:46:31.684Z,102183.13
2018-02-17T05:49:00.121Z,102173.56
2018-02-17T05:51:27.633Z,102175.87
2018-02-17T05:53:55.148Z,102179.84
2018-02-17T05:56:22.705Z,102181.62
2018-02-17T05:58:50.260Z,102181.10
2018-02-17T06:01:17.782Z,102185.96
2018-02-17T06:03:45.300Z,102173.23
2018-02-17T06:06:12.821Z,102178.97
2018-02-17T06:08:40.359Z,102181.12
2018-02-17T06:11:07.898Z,102175.45
2018-02-17T06:13:35.411Z,102183.82
2018-02-17T06:16:02.968Z,102178.64
2018-02-17T06:18:30.508Z,102178.16
2018-02-17T06:20:58.034Z,102180.73
2018-02-17T06:23:25.562Z,102183.32
2018-02-17T06:25:53.093Z,102173.69
2018-02-17T06:28:20.655Z,102176.33
2018-02-17T06:30:48.167Z,102171.09
2018-02-17T06:33:15.789Z,102173.75
2018-02-17T06:35:43.346Z,102176.50
2018-02-17T06:38:10.923Z,102173.97
2018-02-17T06:40:38.440Z,102171.28
2018-02-17T06:43:05.957Z,102165.27
2018-02-17T06:45:33.473Z,102160.73
2018-02-17T06:48:01.055Z,102162.56
2018-02-17T06:50:28.828Z,102169.61
2018-02-17T06:52:56.353Z,102164.20
2018-02-17T06:55:23.930Z,102176.68
2018-02-17T06:57:51.436Z,102164.83
2018-02-17T07:00:19.059Z,102160.92
2018-02-17T07:02:46.589Z,102164.38
2018-02-17T07:05:14.166Z,102163.89
2018-02-17T07:07:41.712Z,102166.59
2018-02-17T07:10:09.297Z,102166.64
2018-02-17T07:12:36.828Z,102172.39
2018-02-17T07:15:04.404Z,102174.09
2018-02-17T07:17:31.952Z,102161.84
2018-02-17T07:19:59.524Z,102161.91
2018-02-17T07:22:27.099Z,102164.55
2018-02-17T07:24:54.627Z,102164.16
2018-02-17T07:27:22.266Z,102161.07
2018-02-17T07:29:49.777Z,102163.23
2018-02-17T07:32:17.311Z,102162.40
2018-02-17T07:34:44.852Z,102157.59
2018-02-17T07:37:12.425Z,102156.38
2018-02-17T07:39:39.940Z,102154.27
2018-02-17T07:42:07.599Z,102148.14
2018-02-17T07:44:35.155Z,102147.06
2018-02-17T07:47:02.697Z,102142.34
2018-02-17T07:49:30.226Z,102150.83
2018-02-17T07:51:57.798Z,102151.31
2018-02-17T07:54:25.321Z,102143.42
2018-02-17T07:56:52.853Z,102141.95
2018-02-17T07:59:20.390Z,102142.00
2018-02-17T08:01:47.933Z,102136.66
2018-02-17T08:04:15.521Z,102133.30
2018-02-17T08:06:43.042Z,102134.67
2018-02-17T08:09:10.578Z,102136.53
2018-02-17T08:11:38.180Z,102133.84
2018-02-17T08:14:05.749Z,102139.63
2018-02-17T08:16:33.319Z,102135.73
2018-02-17T08:19:00.837Z,102138.34
2018-02-17T08:21:28.377Z,102141.48
2018-02-17T08:23:55.897Z,102143.72
2018-02-17T08:26:23.426Z,102139.71
2018-02-17T08:28:50.942Z,102133.56
2018-02-17T08:31:18.488Z,102132.68
2018-02-17T08:33:46.002Z,102131.40
2018-02-17T08:36:13.529Z,102131.11
2018-02-17T08:38:41.049Z,102135.16
2018-02-17T08:41:08.565Z,102124.44
2018-02-17T08:43:36.171Z,102122.41
2018-02-17T08:46:03.732Z,102128.02
2018-02-17T08:48:31.299Z,102128.53
2018-02-17T08:50:58.849Z,102120.61
2018-02-17T08:53:26.364Z,102117.14
2018-02-17T08:55:53.877Z,102114.59
2018-02-17T08:58:21.417Z,102115.97
2018-02-17T09:00:48.948Z,102112.31
2018-02-17T09:03:16.483Z,102114.59
2018-02-17T09:05:44.009Z,102111.42
2018-02-17T09:08:11.538Z,102110.61
2018-02-17T09:10:48.889Z,102109.42
2018-02-17T09:13:16.521Z,102110.41
2018-02-17T09:15:44.050Z,102105.52
2018-02-17T09:18:11.589Z,102098.56
2018-02-17T09:20:39.496Z,102096.84
2018-02-17T09:23:07.053Z,102096.47
2018-02-17T09:25:34.616Z,102095.55
2018-02-17T09:28:02.129Z,102089.27
2018-02-17T09:30:29.728Z,102081.31
2018-02-17T09:32:57.244Z,102080.77
2018-02-17T09:35:24.853Z,102081.38
2018-02-17T09:37:52.410Z,102083.56
2018-02-17T09:40:19.935Z,102075.20
2018-02-17T09:42:47.445Z,102077.86
2018-02-17T09:45:14.960Z,102080.49
2018-02-17T09:47:42.490Z,102077.45
2018-02-17T09:50:10.009Z,102084.99
2018-02-17T09:52:37.609Z,102077.43
2018-02-17T09:55:05.256Z,102081.04
2018-02-17T09:57:32.909Z,102077.98
2018-02-17T10:00:00.423Z,102077.98
2018-02-17T10:02:28.029Z,102082.39
2018-02-17T10:04:55.594Z,102070.48
2018-02-17T10:07:23.114Z,102072.71
2018-02-17T10:09:50.649Z,102079.32
2018-02-17T10:12:18.204Z,102082.45
2018-02-17T10:14:45.722Z,102079.35
2018-02-17T10:17:13.290Z,102080.25
2018-02-17T10:19:41.279Z,102090.89
2018-02-17T10:22:08.825Z,102094.44
2018-02-17T10:24:36.383Z,102094.45
2018-02-17T10:27:03.895Z,102094.91
2018-02-17T10:29:31.418Z,102101.98
2018-02-17T10:31:58.976Z,102101.56
2018-02-17T10:34:26.613Z,102103.78
2018-02-17T10:36:54.142Z,102094.03
2018-02-17T10:39:21.673Z,102096.26
2018-02-17T10:41:49.197Z,102093.14
2018-02-17T10:44:16.728Z,102089.59
2018-02-17T10:46:44.253Z,102095.83
2018-02-17T10:49:11.870Z,102092.28
2018-02-17T10:51:39.391Z,102094.07
2018-02-17T10:54:06.935Z,102088.74
2018-02-17T10:56:34.545Z,102090.89
2018-02-17T10:59:02.117Z,102086.93
2018-02-17T11:01:29.633Z,102085.11
2018-02-17T11:03:57.232Z,102083.27
2018-02-17T11:06:24.748Z,102081.88
2018-02-17T11:08:52.307Z,102074.75
2018-02-17T11:11:19.834Z,102080.98
2018-02-17T11:13:47.352Z,102078.86
2018-02-17T11:16:14.869Z,102075.80
2018-02-17T11:18:42.379Z,102069.94
2018-02-17T11:21:09.931Z,102076.61
2018-02-17T11:23:37.496Z,102073.58
2018-02-17T11:26:05.037Z,102076.66
2018-02-17T11:28:32.568Z,102075.33
2018-02-17T11:31:00.085Z,102067.25
2018-02-17T11:33:27.616Z,102070.81
2018-02-17T11:35:55.213Z,102065.45
2018-02-17T11:38:22.752Z,102063.65
2018-02-17T11:40:50.346Z,102065.80
2018-02-17T11:43:17.853Z,102056.97
2018-02-17T11:45:45.398Z,102062.73
2018-02-17T11:48:12.991Z,102061.67
2018-02-17T11:50:40.552Z,102060.77
2018-02-17T11:53:08.102Z,102058.11
2018-02-17T11:55:35.641Z,102057.59
2018-02-17T11:58:03.215Z,102062.05
2018-02-17T12:00:30.729Z,102057.63
2018-02-17T12:02:58.249Z,102054.09
2018-02-17T12:05:25.825Z,102056.23
2018-02-17T12:07:53.345Z,102052.62
2018-02-17T12:10:20.880Z,102051.34
2018-02-17T12:12:48.494Z,102049.08
2018-02-17T12:15:16.024Z,102045.85
2018-02-17T12:17:43.554Z,102048.95
2018-02-17T12:20:11.070Z,102045.53
2018-02-17T12:22:38.601Z,102045.92
2018-02-17T12:25:06.195Z,102045.92
2018-02-17T12:27:33.720Z,102043.23
2018-02-17T12:30:01.253Z,102042.78
2018-02-17T12:32:28.868Z,102039.11
2018-02-17T12:34:56.377Z,102042.31
2018-02-17T12:37:24.000Z,102035.56
2018-02-17T12:39:51.535Z,102032.70
2018-02-17T12:42:19.104Z,102034.11
2018-02-17T12:44:46.671Z,102027.14
2018-02-17T12:47:14.233Z,102033.34
2018-02-17T12:49:41.759Z,102035.08
2018-02-17T12:52:09.290Z,102030.20
2018-02-17T12:54:36.845Z,102030.57
2018-02-17T12:57:04.407Z,102023.16
2018-02-17T12:59:32.041Z,102021.44
2018-02-17T13:01:59.564Z,102019.23
2018-02-17T13:04:27.122Z,102013.92
2018-02-17T13:06:55.262Z,102017.92
2018-02-17T13:09:22.889Z,102011.25
2018-02-17T13:11:50.401Z,102012.27
2018-02-17T13:14:17.908Z,102019.83
2018-02-17T13:16:45.556Z,102011.36
2018-02-17T13:19:13.096Z,102013.61
2018-02-17T13:21:40.650Z,102010.53
2018-02-17T13:24:08.181Z,102013.63
2018-02-17T13:26:35.856Z,102008.19
2018-02-17T13:29:03.353Z,102016.69
2018-02-17T13:31:30.898Z,102014.02
2018-02-17T13:33:58.420Z,102011.24
2018-02-17T13:36:26.051Z,102008.63
2018-02-17T13:38:53.569Z,102007.23
2018-02-17T13:41:21.097Z,102003.78
2018-02-17T13:43:48.727Z,102005.06
2018-02-17T13:46:16.270Z,102005.99
2018-02-17T13:48:43.788Z,102008.25
2018-02-17T13:51:11.404Z,102002.50
2018-02-17T13:53:38.964Z,102010.50
2018-02-17T13:56:06.529Z,102008.73
2018-02-17T13:58:34.049Z,102006.51
2018-02-17T14:01:01.580Z,102015.39
2018-02-17T14:03:29.096Z,102014.52
2018-02-17T14:05:56.652Z,102009.63
2018-02-17T14:08:24.182Z,102010.52
2018-02-17T14:10:51.697Z,102014.07
2018-02-17T14:13:19.233Z,102010.09
2018-02-17T14:15:46.785Z,102007.36
2018-02-17T14:18:14.278Z,102009.08
2018-02-17T14:20:41.852Z,102016.30
2018-02-17T14:23:09.407Z,102014.55
2018-02-17T14:25:36.959Z,102012.34
2018-02-17T14:28:04.467Z,102018.14
2018-02-17T14:30:32.041Z,102011.95
2018-02-17T14:32:59.572Z,102018.17
2018-02-17T14:35:27.076Z,102015.52
2018-02-17T14:37:54.592Z,102020.37
2018-02-17T14:40:22.132Z,102018.98
2018-02-17T14:42:49.671Z,102024.80
2018-02-17T14:45:17.200Z,102024.36
2018-02-17T14:47:44.728Z,102022.15
2018-02-17T14:50:12.248Z,102018.61
2018-02-17T14:52:39.769Z,102019.08
2018-02-17T14:55:07.284Z,102019.94
2018-02-17T14:57:34.807Z,102019.98
2018-02-17T15:00:02.345Z,102010.63
2018-02-17T15:02:29.869Z,102013.24
2018-02-17T15:04:57.384Z,102017.31
2018-02-17T15:07:25.870Z,102017.72
2018-02-17T15:09:53.512Z,102017.75
2018-02-17T15:12:21.007Z,102017.75
2018-02-17T15:14:48.540Z,102015.09
2018-02-17T15:17:16.113Z,102025.28
2018-02-17T15:19:43.639Z,102026.18
2018-02-17T15:22:11.241Z,102032.39
2018-02-17T15:24:38.833Z,102027.53
2018-02-17T15:27:06.347Z,102026.63
2018-02-17T15:29:33.912Z,102018.66
2018-02-17T15:32:01.424Z,102021.77
2018-02-17T15:34:28.939Z,102018.22
2018-02-17T15:36:56.512Z,102022.20
2018-02-17T15:39:24.029Z,102024.43
2018-02-17T15:41:51.590Z,102033.31
2018-02-17T15:44:19.138Z,102030.20
2018-02-17T15:46:46.729Z,102032.39
2018-02-17T15:49:14.252Z,102031.08
2018-02-17T15:51:41.791Z,102023.54
2018-02-17T15:54:09.380Z,102030.17
2018-02-17T15:56:36.894Z,102025.74
2018-02-17T15:59:04.408Z,102027.52
2018-02-17T16:01:31.933Z,102027.55
2018-02-17T16:03:59.459Z,102030.64
2018-02-17T16:06:26.967Z,102035.50
2018-02-17T16:08:54.485Z,102029.73
2018-02-17T16:11:21.997Z,102029.75
2018-02-17T16:13:49.511Z,102030.17
2018-02-17T16:16:17.055Z,102032.41
2018-02-17T16:18:44.567Z,102040.81
2018-02-17T16:21:12.101Z,102037.25
2018-02-17T16:23:39.720Z,102038.59
2018-02-17T16:26:07.239Z,102046.13
2018-02-17T16:28:34.757Z,102045.70
2018-02-17T16:31:02.269Z,102051.02
2018-02-17T16:33:29.822Z,102059.86
2018-02-17T16:35:57.358Z,102060.77
2018-02-17T16:38:24.872Z,102062.53
2018-02-17T16:40:52.391Z,102066.09
2018-02-17T16:43:19.916Z,102071.39
2018-02-17T16:45:47.432Z,102071.39
2018-02-17T16:48:14.952Z,102074.48
2018-02-17T16:50:42.471Z,102078.03
2018-02-17T16:53:10.000Z,102080.27
2018-02-17T16:55:37.607Z,102077.16
2018-02-17T16:58:05.185Z,102077.14
2018-02-17T17:00:32.681Z,102080.69
2018-02-17T17:03:00.207Z,102089.57
2018-02-17T17:05:27.727Z,102088.25
2018-02-17T17:07:55.243Z,102094.88
2018-02-17T17:10:22.791Z,102088.67
2018-02-17T17:12:50.316Z,102087.75
2018-02-17T17:15:18.330Z,102094.86
2018-02-17T17:17:45.860Z,102093.52
2018-02-17T17:20:13.373Z,102089.97
2018-02-17T17:22:40.894Z,102094.83
2018-02-17T17:25:08.413Z,102091.77
2018-02-17T17:27:35.953Z,102090.41
2018-02-17T17:30:03.472Z,102094.84
2018-02-17T17:32:30.983Z,102092.17
2018-02-17T17:34:58.501Z,102101.92
2018-02-17T17:37:26.013Z,102107.66
2018-02-17T17:39:53.524Z,102108.11
2018-02-17T17:42:21.040Z,102109.45
2018-02-17T17:44:48.553Z,102115.64
2018-02-17T17:47:16.084Z,102124.06
2018-02-17T17:49:43.600Z,102123.59
2018-02-17T17:52:11.117Z,102124.05
2018-02-17T17:54:38.632Z,102122.73
2018-02-17T17:57:06.148Z,102126.25
2018-02-17T17:59:33.672Z,102131.14
2018-02-17T18:02:01.198Z,102132.03
2018-02-17T18:04:28.724Z,102128.92
2018-02-17T18:06:56.240Z,102128.92
2018-02-17T18:09:23.748Z,102127.58
2018-02-17T18:11:51.274Z,102131.13
2018-02-17T18:14:18.913Z,102134.67
2018-02-17T18:16:46.421Z,102132.48
2018-02-17T18:19:13.946Z,102131.57
2018-02-17T18:21:41.461Z,102130.69
2018-02-17T18:24:08.978Z,102128.91
2018-02-17T18:26:36.524Z,102135.11
2018-02-17T18:29:04.020Z,102136.85
2018-02-17T18:31:31.537Z,102141.31
2018-02-17T18:33:59.048Z,102139.95
2018-02-17T18:36:26.568Z,102150.16
2018-02-17T18:38:54.102Z,102144.41
2018-02-17T18:41:21.620Z,102149.72
2018-02-17T18:43:49.133Z,102146.61
2018-02-17T18:46:16.645Z,102153.25
2018-02-17T18:48:44.168Z,102149.70
2018-02-17T18:51:11.685Z,102148.37
2018-02-17T18:53:39.215Z,102143.05
2018-02-17T18:56:06.732Z,102143.49
2018-02-17T18:58:34.246Z,102144.39
2018-02-17T19:01:01.772Z,102148.37
2018-02-17T19:03:29.293Z,102143.52
2018-02-17T19:05:56.822Z,102148.34
2018-02-17T19:08:24.342Z,102150.09
2018-02-17T19:10:51.853Z,102151.86
2018-02-17T19:13:19.366Z,102148.34
2018-02-17T19:15:46.875Z,102154.56
2018-02-17T19:18:14.397Z,102150.59
2018-02-17T19:20:41.919Z,102158.98
2018-02-17T19:23:09.477Z,102151.00
2018-02-17T19:25:37.002Z,102158.97
2018-02-17T19:28:04.522Z,102151.84
2018-02-17T19:30:32.039Z,102159.40
2018-02-17T19:32:59.555Z,102162.00
2018-02-17T19:35:27.068Z,102162.03
2018-02-17T19:37:54.591Z,102161.61
2018-02-17T19:40:22.108Z,102159.37
2018-02-17T19:42:49.629Z,102160.67
2018-02-17T19:45:17.226Z,102164.69
2018-02-17T19:47:44.746Z,102162.05
2018-02-17T19:50:12.262Z,102160.72
2018-02-17T19:52:39.809Z,102162.48
2018-02-17T19:55:07.346Z,102163.84
2018-02-17T19:57:34.862Z,102166.95
2018-02-17T20:00:02.386Z,102168.25
2018-02-17T20:02:29.917Z,102170.88
2018-02-17T20:04:57.433Z,102170.91
2018-02-17T20:07:24.953Z,102170.02
2018-02-17T20:09:52.465Z,102170.91
2018-02-17T20:12:19.972Z,102171.34
2018-02-17T20:14:47.485Z,102173.56
2018-02-17T20:17:15.001Z,102176.64
2018-02-17T20:19:42.514Z,102178.41
2018-02-17T20:22:10.027Z,102182.41
2018-02-17T20:24:37.567Z,102189.46
2018-02-17T20:27:05.078Z,102185.50
2018-02-17T20:29:32.588Z,102190.81
2018-02-17T20:32:00.109Z,102198.78
2018-02-17T20:34:27.633Z,102192.59
2018-02-17T20:36:55.160Z,102203.67
2018-02-17T20:39:22.668Z,102200.59
2018-02-17T20:41:50.229Z,102204.16
2018-02-17T20:44:17.746Z,102210.34
2018-02-17T20:46:45.278Z,102213.88
2018-02-17T20:49:12.821Z,102207.70
2018-02-17T20:51:40.333Z,102204.58
2018-02-17T20:54:07.836Z,102210.36
2018-02-17T20:56:35.354Z,102208.14
2018-02-17T20:59:02.882Z,102212.11
2018-02-17T21:01:30.489Z,102217.84
2018-02-17T21:03:57.980Z,102217.84
2018-02-17T21:06:25.484Z,102215.16
2018-02-17T21:08:52.996Z,102221.36
2018-02-17T21:11:20.505Z,102216.02
2018-02-17T21:13:48.028Z,102231.96
2018-02-17T21:16:15.537Z,102225.73
2018-02-17T21:18:43.356Z,102229.72
2018-02-17T21:21:10.861Z,102229.72
2018-02-17T21:23:38.397Z,102233.20
2018-02-17T21:26:05.953Z,102228.78
2018-02-17T21:28:33.487Z,102236.78
2018-02-17T21:31:01.006Z,102240.27
2018-02-17T21:33:28.610Z,102243.36
2018-02-17T21:35:56.121Z,102252.59
2018-02-17T21:38:23.737Z,102246.84
2018-02-17T21:40:51.241Z,102254.75
2018-02-17T21:43:18.774Z,102252.59
2018-02-17T21:45:46.392Z,102251.27
2018-02-17T21:48:13.900Z,102255.66
2018-02-17T21:50:41.412Z,102253.01
2018-02-17T21:53:08.948Z,102256.58
2018-02-17T21:55:36.500Z,102257.84
2018-02-17T21:58:04.032Z,102263.19
2018-02-17T22:00:31.555Z,102265.81
2018-02-17T22:02:59.122Z,102274.22
2018-02-17T22:05:26.634Z,102269.34
2018-02-17T22:07:54.159Z,102274.66
2018-02-17T22:10:21.795Z,102272.48
2018-02-17T22:12:49.309Z,102269.34
2018-02-17T22:15:16.830Z,102273.81
2018-02-17T22:17:44.345Z,102271.56
2018-02-17T22:20:11.931Z,102278.67
2018-02-17T22:22:39.492Z,102284.43
2018-02-17T22:25:07.053Z,102284.02
2018-02-17T22:27:34.573Z,102283.95
2018-02-17T22:30:02.182Z,102285.72
2018-02-17T22:32:29.706Z,102286.64
2018-02-17T22:34:57.227Z,102279.91
2018-02-17T22:37:24.737Z,102286.50
2018-02-17T22:39:52.247Z,102287.42
2018-02-17T22:42:19.877Z,102291.37
2018-02-17T22:44:47.400Z,102296.23
2018-02-17T22:47:14.936Z,102297.13
2018-02-17T22:49:42.478Z,102304.23
2018-02-17T22:52:09.993Z,102308.18
2018-02-17T22:54:37.506Z,102310.75
2018-02-17T22:57:05.022Z,102318.24
2018-02-17T22:59:32.550Z,102317.39
2018-02-17T23:02:00.067Z,102318.36
2018-02-17T23:04:27.589Z,102317.91
2018-02-17T23:06:55.162Z,102320.53
2018-02-17T23:09:22.672Z,102329.91
2018-02-17T23:11:50.978Z,102327.65
2018-02-17T23:14:18.500Z,102329.45
2018-02-17T23:16:46.017Z,102324.95
2018-02-17T23:19:13.519Z,102324.06
2018-02-17T23:21:41.054Z,102325.40
2018-02-17T23:24:08.591Z,102332.92
2018-02-17T23:26:36.129Z,102330.75
2018-02-17T23:29:03.645Z,102336.46
2018-02-17T23:31:31.170Z,102329.30
2018-02-17T23:33:58.697Z,102337.58
2018-02-17T23:36:26.218Z,102331.03
2018-02-17T23:38:53.729Z,102338.09
2018-02-17T23:41:21.249Z,102341.64
2018-02-17T23:43:48.774Z,102339.91
2018-02-17T23:46:16.295Z,102345.27
2018-02-17T23:48:43.809Z,102345.18
2018-02-17T23:51:11.340Z,102338.98
2018-02-17T23:53:38.861Z,102340.80
2018-02-17T23:56:06.380Z,102338.42
2018-02-17T23:58:33.902Z,102347.66
